Time;durP1;ratioP1;P1;durP2;ratioP2;P2;SDS_P1;SDS_P2;PMS_P1;PMS_P2;Temp;Humidity;BMP_temperature;BMP_pressure;BME280_temperature;BME280_humidity;BME280_pressure;Samples;Min_cycle;Max_cycle;Signal;HPM_P1;HPM_P2
2022/02/13 00:03:46;;;;;;;1.33;0.80;;;22.70;25.00;22.90;94423.00;;;;10401015;28;47970;-80
2022/02/13 00:08:46;;;;;;;1.00;0.70;;;22.60;25.00;22.90;94417.00;;;;10430898;28;47115;-80
2022/02/13 00:13:47;;;;;;;1.30;0.80;;;22.70;25.10;22.80;94420.00;;;;10420131;28;47335;-80
2022/02/13 00:18:48;;;;;;;1.40;0.80;;;22.70;25.10;22.80;94404.00;;;;10420625;28;47714;-81
2022/02/13 00:23:49;;;;;;;0.90;0.70;;;22.50;25.10;22.80;94413.00;;;;10419556;28;46833;-80
2022/02/13 00:28:50;;;;;;;1.02;0.60;;;22.50;25.10;22.80;94414.00;;;;10420189;28;47287;-80
2022/02/13 00:33:51;;;;;;;1.23;0.50;;;22.50;25.20;22.80;94382.00;;;;10419764;28;47258;-80
2022/02/13 00:38:51;;;;;;;0.93;0.68;;;22.50;25.20;22.80;94397.00;;;;10420225;28;46885;-80
2022/02/13 00:43:52;;;;;;;1.40;0.80;;;22.60;25.40;22.80;94393.00;;;;10419782;28;47210;-80
2022/02/13 00:48:54;;;;;;;1.27;0.60;;;22.50;25.30;22.70;94386.00;;;;10419890;28;46908;-81
2022/02/13 00:53:55;;;;;;;1.30;0.70;;;22.50;25.40;22.70;94386.00;;;;10419347;28;47049;-80
2022/02/13 00:58:55;;;;;;;0.85;0.60;;;22.40;25.40;22.70;94370.00;;;;10419656;28;47070;-80
2022/02/13 01:03:56;;;;;;;0.50;0.47;;;22.40;25.40;22.70;94375.00;;;;10418771;28;47214;-80
2022/02/13 01:08:57;;;;;;;0.82;0.60;;;22.40;25.50;22.70;94381.00;;;;10441894;28;46239;-81
2022/02/13 01:13:57;;;;;;;0.98;0.50;;;22.40;25.40;22.70;94372.00;;;;10425541;28;48357;-80
2022/02/13 01:18:59;;;;;;;1.10;0.50;;;22.40;25.50;22.70;94375.00;;;;10425988;28;48383;-80
2022/02/13 01:24:00;;;;;;;0.57;0.50;;;22.30;25.40;22.70;94372.00;;;;10425670;28;47133;-80
2022/02/13 01:29:01;;;;;;;1.13;0.70;;;22.40;25.40;22.70;94370.00;;;;10426276;28;47269;-80
2022/02/13 01:34:02;;;;;;;0.82;0.60;;;22.30;25.40;22.60;94367.00;;;;10424948;28;47008;-81
2022/02/13 01:39:03;;;;;;;1.17;0.80;;;22.40;25.50;22.60;94360.00;;;;10442652;28;45427;-80
2022/02/13 01:44:04;;;;;;;0.98;0.60;;;22.30;25.50;22.60;94363.00;;;;10424884;28;47029;-80
2022/02/13 01:49:04;;;;;;;0.70;0.60;;;22.30;25.50;22.60;94358.00;;;;10425704;28;47262;-81
2022/02/13 01:54:05;;;;;;;0.85;0.50;;;22.30;25.50;22.60;94366.00;;;;10424909;28;47623;-80
2022/02/13 01:59:07;;;;;;;0.55;0.47;;;22.30;25.50;22.50;94342.00;;;;10423029;28;47043;-81
2022/02/13 02:04:08;;;;;;;0.60;0.50;;;22.20;25.50;22.50;94355.00;;;;10418810;28;46994;-81
2022/02/13 02:09:08;;;;;;;0.80;0.60;;;22.20;25.50;22.50;94350.00;;;;10423032;28;47073;-80
2022/02/13 02:14:09;;;;;;;0.90;0.60;;;22.20;25.50;22.50;94360.00;;;;10447327;22;47970;-79
2022/02/13 02:19:11;;;;;;;0.70;0.57;;;22.20;25.60;22.50;94361.00;;;;10410562;28;47606;-78
2022/02/13 02:24:13;;;;;;;0.93;0.50;;;22.20;25.60;22.50;94346.00;;;;10440848;28;45339;-78
2022/02/13 02:29:14;;;;;;;0.70;0.57;;;22.20;25.60;22.50;94338.00;;;;10423994;28;46960;-78
2022/02/13 02:34:15;;;;;;;0.60;0.50;;;22.20;25.50;22.50;94334.00;;;;10425819;28;46966;-77
2022/02/13 02:39:16;;;;;;;0.75;0.50;;;22.20;25.50;22.50;94318.00;;;;10434572;28;47131;-78
2022/02/13 02:44:16;;;;;;;0.95;0.57;;;22.20;25.50;22.50;94332.00;;;;10430044;28;46993;-78
2022/02/13 02:49:17;;;;;;;0.90;0.55;;;22.20;25.50;22.50;94331.00;;;;10447876;28;45695;-78
2022/02/13 02:54:18;;;;;;;0.93;0.60;;;22.20;25.50;22.50;94319.00;;;;10428700;28;47294;-78
2022/02/13 02:59:18;;;;;;;0.70;0.50;;;22.20;25.60;22.50;94320.00;;;;10428088;28;47369;-78
2022/02/13 03:04:19;;;;;;;0.60;0.60;;;22.20;25.50;22.40;94316.00;;;;10445139;28;45444;-78
2022/02/13 03:09:20;;;;;;;0.60;0.50;;;22.20;25.50;22.50;94315.00;;;;10427495;28;48236;-79
2022/02/13 03:14:20;;;;;;;0.65;0.60;;;22.10;25.50;22.40;94314.00;;;;10427082;28;47863;-79
2022/02/13 03:19:21;;;;;;;0.98;0.60;;;22.10;25.50;22.40;94304.00;;;;10425927;28;46875;-78
2022/02/13 03:24:22;;;;;;;1.35;0.52;;;22.10;25.50;22.40;94299.00;;;;10425041;28;47187;-79
2022/02/13 03:29:22;;;;;;;0.50;0.50;;;22.10;25.50;22.40;94282.00;;;;10424008;28;47177;-78
2022/02/13 03:34:23;;;;;;;1.00;0.45;;;22.10;25.50;22.40;94288.00;;;;10424290;28;48304;-79
2022/02/13 03:39:24;;;;;;;1.00;0.70;;;22.10;25.50;22.40;94299.00;;;;10424281;28;47241;-78
2022/02/13 03:44:24;;;;;;;0.52;0.47;;;22.10;25.50;22.40;94291.00;;;;10423619;28;48487;-78
2022/02/13 03:49:25;;;;;;;0.57;0.50;;;22.10;25.60;22.40;94292.00;;;;10440986;28;45176;-78
2022/02/13 03:54:26;;;;;;;1.58;0.60;;;22.10;25.60;22.30;94303.00;;;;10422890;28;47520;-78
2022/02/13 03:59:26;;;;;;;0.43;0.43;;;22.10;25.60;22.40;94296.00;;;;10422475;28;47087;-79
2022/02/13 04:04:27;;;;;;;0.70;0.60;;;22.00;25.50;22.30;94275.00;;;;10422218;28;48246;-79
2022/02/13 04:09:27;;;;;;;0.50;0.50;;;22.10;25.50;22.30;94285.00;;;;10422626;28;47431;-79
2022/02/13 04:14:28;;;;;;;0.80;0.50;;;22.00;25.50;22.40;94283.00;;;;10438056;28;47260;-78
2022/02/13 04:19:29;;;;;;;1.08;0.52;;;22.00;25.50;22.30;94279.00;;;;10438529;28;46339;-78
2022/02/13 04:24:29;;;;;;;0.60;0.57;;;22.00;25.50;22.30;94274.00;;;;10397712;28;48324;-79
2022/02/13 04:29:30;;;;;;;0.82;0.40;;;22.00;25.50;22.30;94287.00;;;;10396449;28;47029;-78
2022/02/13 04:34:31;;;;;;;1.45;0.50;;;22.00;25.50;22.30;94270.00;;;;10396204;28;46573;-78
2022/02/13 04:39:32;;;;;;;0.50;0.50;;;22.00;25.50;22.30;94273.00;;;;10379717;28;47429;-79
2022/02/13 04:44:32;;;;;;;0.47;0.38;;;22.00;25.50;22.20;94260.00;;;;10402638;28;48668;-78
2022/02/13 04:49:33;;;;;;;0.60;0.35;;;22.00;26.10;22.30;94259.00;;;;10403071;28;48249;-78
2022/02/13 04:54:34;;;;;;;0.47;0.47;;;22.00;25.50;22.30;94258.00;;;;10404448;28;47026;-78
2022/02/13 04:59:37;;;;;;;0.50;0.32;;;22.00;25.60;22.20;94245.00;;;;10404603;28;48302;-78
2022/02/13 05:04:37;;;;;;;1.00;0.52;;;22.00;25.60;22.20;94227.00;;;;10407902;28;47606;-77
2022/02/13 05:09:38;;;;;;;0.63;0.40;;;22.00;25.60;22.20;94224.00;;;;10408773;28;47172;-78
2022/02/13 05:14:40;;;;;;;0.80;0.47;;;21.90;25.60;22.30;94224.00;;;;10402638;28;48338;-78
2022/02/13 05:19:41;;;;;;;2.28;0.60;;;22.00;25.60;22.40;94221.00;;;;10401595;28;45375;-78
2022/02/13 05:24:42;;;;;;;1.10;0.50;;;22.00;26.10;22.40;94214.00;;;;10401357;28;45334;-79
2022/02/13 05:29:42;;;;;;;1.50;0.57;;;22.00;26.30;22.40;94215.00;;;;10401168;28;48000;-78
2022/02/13 05:34:43;;;;;;;0.57;0.50;;;22.10;26.60;22.50;94216.00;;;;10400771;28;45187;-79
2022/02/13 05:39:44;;;;;;;1.77;0.40;;;22.00;26.90;22.40;94221.00;;;;10400893;28;46989;-79
2022/02/13 05:44:44;;;;;;;0.40;0.40;;;22.10;27.10;22.50;94224.00;;;;10400521;28;46928;-79
2022/02/13 05:49:45;;;;;;;1.27;0.40;;;22.10;27.50;22.50;94214.00;;;;10400862;28;47156;-80
2022/02/13 05:54:46;;;;;;;1.45;0.47;;;22.20;27.90;22.60;94213.00;;;;10399536;28;45346;-78
2022/02/13 05:59:47;;;;;;;1.85;0.70;;;22.20;27.80;22.50;94203.00;;;;10400115;28;47753;-79
2022/02/13 06:04:47;;;;;;;1.42;0.40;;;22.10;27.40;22.40;94209.00;;;;10399660;28;46879;-79
2022/02/13 06:09:48;;;;;;;0.68;0.47;;;22.10;27.60;22.40;94214.00;;;;10400483;28;47767;-78
2022/02/13 06:14:48;;;;;;;1.88;0.57;;;22.10;26.60;22.40;94204.00;;;;10399092;28;47649;-79
2022/02/13 06:19:49;;;;;;;2.53;0.68;;;22.10;26.90;22.30;94200.00;;;;10383171;28;47577;-79
2022/02/13 06:24:50;;;;;;;1.05;0.40;;;22.00;26.00;22.30;94200.00;;;;10399358;28;45297;-79
2022/02/13 06:29:50;;;;;;;2.30;0.60;;;22.00;26.20;22.30;94196.00;;;;10383336;28;46979;-78
2022/02/13 06:34:51;;;;;;;2.65;0.85;;;22.00;26.00;22.20;94182.00;;;;10399447;28;48411;-78
2022/02/13 06:39:52;;;;;;;2.35;0.60;;;22.00;25.70;22.20;94202.00;;;;10399198;28;47219;-78
2022/02/13 06:44:52;;;;;;;2.30;0.60;;;21.90;25.50;22.20;94191.00;;;;10398165;28;48650;-78
2022/02/13 06:49:53;;;;;;;2.70;0.57;;;21.90;25.10;22.20;94187.00;;;;10398906;28;47007;-78
2022/02/13 06:54:54;;;;;;;2.50;0.70;;;21.90;25.20;22.20;94176.00;;;;10397953;28;47043;-78
2022/02/13 06:59:55;;;;;;;1.50;0.60;;;21.90;25.10;22.30;94181.00;;;;10401885;28;48483;-78
2022/02/13 07:05:19;;;;;;;1.48;0.70;;;21.90;25.10;22.30;94172.00;;;;10402644;28;47189;-77
2022/02/13 07:10:20;;;;;;;2.78;0.60;;;21.90;25.20;22.30;94179.00;;;;10404001;28;46101;-78
2022/02/13 07:15:21;;;;;;;4.30;0.70;;;22.00;25.10;22.30;94181.00;;;;10383505;28;47061;-77
2022/02/13 07:20:22;;;;;;;3.33;1.00;;;22.00;24.60;22.20;94191.00;;;;10395314;28;46195;-78
2022/02/13 07:25:24;;;;;;;2.20;1.02;;;22.00;24.70;22.20;94177.00;;;;10360297;28;48026;-78
2022/02/13 07:30:25;;;;;;;2.55;0.70;;;22.00;24.80;22.30;94180.00;;;;10356367;28;47369;-78
2022/02/13 07:35:25;;;;;;;2.63;0.95;;;22.10;24.90;22.40;94176.00;;;;10359296;28;45406;-77
2022/02/13 07:40:26;;;;;;;1.65;1.00;;;22.20;24.80;22.50;94176.00;;;;10356419;28;48246;-77
2022/02/13 07:45:27;;;;;;;3.80;1.10;;;22.30;24.80;22.60;94166.00;;;;10339672;28;47173;-77
2022/02/13 07:50:27;;;;;;;4.15;1.15;;;22.40;24.80;22.70;94164.00;;;;10355459;28;47561;-78
2022/02/13 07:55:29;;;;;;;6.30;1.20;;;22.50;24.90;22.90;94164.00;;;;10354962;28;48240;-78
2022/02/13 08:00:30;;;;;;;3.13;1.10;;;22.60;25.00;23.00;94164.00;;;;10354992;28;47117;-78
2022/02/13 08:05:31;;;;;;;3.28;1.02;;;22.70;25.50;22.80;94156.00;;;;10354290;28;45531;-78
2022/02/13 08:10:31;;;;;;;2.80;1.10;;;22.70;24.90;23.00;94166.00;;;;10354524;28;46925;-78
2022/02/13 08:15:32;;;;;;;3.17;0.90;;;22.70;25.10;22.90;94163.00;;;;10353410;28;48036;-79
2022/02/13 08:20:33;;;;;;;3.60;1.00;;;22.70;25.30;23.00;94158.00;;;;10354176;28;48463;-77
2022/02/13 08:25:34;;;;;;;3.70;1.10;;;22.70;25.40;23.00;94159.00;;;;10353588;28;47344;-79
2022/02/13 08:30:34;;;;;;;4.57;1.60;;;22.70;25.80;23.10;94163.00;;;;10355136;28;46371;-78
2022/02/13 08:35:36;;;;;;;5.78;2.60;;;22.80;26.40;21.80;94155.00;;;;10353999;28;47285;-78
2022/02/13 08:40:37;;;;;;;4.80;1.70;;;22.60;21.30;22.00;94136.00;;;;10353977;28;47214;-77
2022/02/13 08:45:38;;;;;;;6.38;3.35;;;22.10;24.80;19.30;94131.00;;;;10353327;28;47032;-77
2022/02/13 08:50:40;;;;;;;5.65;3.20;;;21.20;19.70;17.70;94140.00;;;;10353749;28;47017;-77
2022/02/13 08:55:41;;;;;;;8.93;5.45;;;19.70;20.50;17.10;94125.00;;;;10353257;28;47048;-77
2022/02/13 09:00:50;;;;;;;5.72;3.00;;;18.70;21.70;20.00;94127.00;;;;10376549;28;47232;-78
2022/02/13 09:05:51;;;;;;;3.60;2.25;;;19.50;24.20;21.70;94130.00;;;;10389233;28;47038;-77
2022/02/13 09:10:52;;;;;;;3.63;2.05;;;20.60;23.80;22.60;94121.00;;;;10378003;28;47291;-77
2022/02/13 09:15:52;;;;;;;3.17;1.85;;;21.50;23.20;23.10;94124.00;;;;10376689;28;48086;-77
2022/02/13 09:20:53;;;;;;;3.83;2.08;;;22.10;22.80;23.60;94118.00;;;;10377388;28;47512;-77
2022/02/13 09:26:04;;;;;;;2.85;1.80;;;22.60;22.80;23.80;94108.00;;;;10376935;28;47144;-77
2022/02/13 09:31:05;;;;;;;3.75;2.00;;;22.90;22.80;24.00;94106.00;;;;10399633;28;47029;-76
2022/02/13 09:36:05;;;;;;;3.90;2.00;;;23.20;22.90;24.10;94103.00;;;;10383897;28;47178;-77
2022/02/13 09:41:06;;;;;;;2.72;1.83;;;23.40;23.20;24.20;94100.00;;;;10401029;28;45327;-77
2022/02/13 09:46:07;;;;;;;2.92;1.83;;;23.50;23.40;24.30;94096.00;;;;10383759;28;47217;-77
2022/02/13 09:51:10;;;;;;;3.08;1.80;;;23.60;23.50;24.40;94088.00;;;;10383536;28;48561;-77
2022/02/13 09:56:12;;;;;;;2.90;1.63;;;23.70;23.70;24.40;94089.00;;;;10383015;28;48305;-77
2022/02/13 10:01:12;;;;;;;4.00;1.80;;;23.80;23.90;24.40;94086.00;;;;10383464;28;47254;-78
2022/02/13 10:06:13;;;;;;;5.75;3.28;;;23.80;24.10;21.40;94084.00;;;;10384414;28;48284;-77
2022/02/13 10:11:23;;;;;;;6.20;3.47;;;22.80;19.10;18.90;94070.00;;;;10399828;28;46784;-76
2022/02/13 10:16:49;;;;;;;5.47;3.10;;;21.00;20.20;18.40;94053.00;;;;10382490;28;48080;-76
2022/02/13 10:22:00;;;;;;;5.70;3.50;;;19.90;21.20;18.10;94065.00;;;;10382508;28;46980;-77
2022/02/13 10:27:00;;;;;;;4.88;3.15;;;19.40;21.80;18.40;94058.00;;;;10399041;28;45165;-76
2022/02/13 10:32:31;;;;;;;7.07;4.05;;;19.20;22.40;17.80;94050.00;;;;10398610;28;47125;-77
2022/02/13 10:37:56;;;;;;;4.72;3.10;;;18.90;22.40;17.90;94043.00;;;;10398466;28;45506;-77
2022/02/13 10:43:04;;;;;;;3.47;2.40;;;18.70;23.00;19.30;94045.00;;;;10387002;28;46870;-77
2022/02/13 10:48:08;;;;;;;3.65;2.10;;;19.00;23.20;20.60;94030.00;;;;10414286;28;47096;-76
2022/02/13 10:53:10;;;;;;;2.90;1.70;;;19.90;22.70;21.20;94036.00;;;;10379605;28;47389;-76
2022/02/13 10:58:11;;;;;;;4.15;1.60;;;20.60;22.80;21.80;94025.00;;;;10396383;28;47540;-77
2022/02/13 11:03:18;;;;;;;3.47;1.58;;;21.00;22.70;22.50;94024.00;;;;10395704;28;47474;-77
2022/02/13 11:08:20;;;;;;;2.85;1.25;;;21.60;22.70;22.70;94013.00;;;;10397521;28;47090;-77
2022/02/13 11:13:27;;;;;;;4.28;1.45;;;21.80;23.60;23.30;94014.00;;;;10392096;28;47246;-77
2022/02/13 11:18:32;;;;;;;4.35;2.95;;;22.30;24.50;20.20;93985.00;;;;10398217;28;45336;-77
2022/02/13 11:23:33;;;;;;;3.10;1.77;;;21.30;20.40;20.90;93974.00;;;;10401790;28;45436;-78
2022/02/13 11:28:45;;;;;;;3.65;1.60;;;21.00;22.80;22.80;93965.00;;;;10419788;28;48222;-78
2022/02/13 11:33:46;;;;;;;2.92;1.10;;;21.80;24.40;23.40;93964.00;;;;10436202;28;48398;-78
2022/02/13 11:38:46;;;;;;;1.17;0.98;;;22.30;24.60;23.50;93957.00;;;;10436582;28;45270;-77
2022/02/13 11:43:50;;;;;;;1.50;0.88;;;22.70;24.90;23.60;93948.00;;;;10435712;28;48214;-78
2022/02/13 11:48:58;;;;;;;6.30;3.97;;;22.90;25.20;20.20;93944.00;;;;10441693;28;45494;-78
2022/02/13 11:53:58;;;;;;;6.30;3.85;;;21.60;19.60;19.50;93916.00;;;;10395934;28;48276;-78
2022/02/13 11:58:59;;;;;;;4.78;2.92;;;20.80;19.80;21.00;93904.00;;;;10358503;28;47577;-78
2022/02/13 12:04:00;;;;;;;4.32;2.40;;;20.80;22.50;22.20;93910.00;;;;10366774;28;47036;-78
2022/02/13 12:09:07;;;;;;;4.25;2.20;;;21.50;22.60;22.80;93904.00;;;;10380637;28;46965;-78
2022/02/13 12:14:20;;;;;;;3.83;1.90;;;22.00;22.70;23.00;93888.00;;;;10396557;28;45461;-78
